Time;durP1;ratioP1;P1;durP2;ratioP2;P2;SDS_P1;SDS_P2;PMS_P1;PMS_P2;Temp;Humidity;BMP_temperature;BMP_pressure;BME280_temperature;BME280_humidity;BME280_pressure;Samples;Min_cycle;Max_cycle;Signal;HPM_P1;HPM_P2
2022/08/01 00:02:26;;;;;;;3.30;3.10;;;27.10;49.10;;;;;;5076003;28;20496;-80
2022/08/01 00:04:55;;;;;;;3.50;3.00;;;27.10;49.10;;;;;;5078028;28;20420;-80
2022/08/01 00:07:23;;;;;;;3.20;2.90;;;27.10;49.10;;;;;;5079583;28;20764;-80
2022/08/01 00:09:58;;;;;;;3.47;3.17;;;27.10;49.20;;;;;;5086030;28;20459;-80
2022/08/01 00:12:25;;;;;;;4.40;2.70;;;27.10;49.30;;;;;;5072037;28;20428;-78
2022/08/01 00:14:51;;;;;;;3.40;3.10;;;27.10;49.40;;;;;;5088307;28;20459;-78
2022/08/01 00:17:17;;;;;;;3.07;2.80;;;27.10;49.40;;;;;;5070041;28;20501;-78
2022/08/01 00:19:43;;;;;;;3.60;3.30;;;27.10;49.40;;;;;;5088193;28;20416;-78
2022/08/01 00:22:09;;;;;;;3.20;3.00;;;27.10;49.50;;;;;;5088293;28;20491;-78
2022/08/01 00:24:35;;;;;;;3.03;2.83;;;27.10;49.60;;;;;;5078730;28;20204;-78
2022/08/01 00:27:01;;;;;;;3.43;3.13;;;27.10;49.60;;;;;;5088487;28;20421;-78
2022/08/01 00:29:27;;;;;;;3.40;3.10;;;27.10;49.60;;;;;;5070696;28;20213;-79
2022/08/01 00:31:53;;;;;;;3.83;3.53;;;27.00;49.60;;;;;;5078994;28;20512;-80
2022/08/01 00:34:19;;;;;;;3.27;2.97;;;27.00;49.70;;;;;;5070452;28;20421;-79
2022/08/01 00:36:46;;;;;;;3.20;2.90;;;27.00;49.80;;;;;;5069990;28;20439;-79
2022/08/01 00:39:12;;;;;;;3.27;3.00;;;27.00;49.90;;;;;;5070067;28;20194;-79
2022/08/01 00:41:38;;;;;;;3.43;3.13;;;27.00;49.90;;;;;;5078370;28;20452;-79
2022/08/01 00:44:05;;;;;;;3.57;3.27;;;27.00;49.70;;;;;;5069727;28;20895;-79
2022/08/01 00:46:32;;;;;;;3.17;2.87;;;27.00;49.80;;;;;;5066126;28;20263;-79
2022/08/01 00:48:58;;;;;;;3.67;3.37;;;27.10;49.90;;;;;;5070041;28;20431;-78
2022/08/01 00:51:25;;;;;;;3.23;2.93;;;27.00;49.70;;;;;;5096103;28;20558;-78
2022/08/01 00:53:52;;;;;;;3.23;3.03;;;27.00;49.70;;;;;;5079251;28;20419;-79
2022/08/01 00:56:20;;;;;;;3.10;2.90;;;27.00;49.70;;;;;;5071367;28;20441;-80
2022/08/01 00:58:46;;;;;;;3.47;3.17;;;27.00;49.70;;;;;;5072709;28;20425;-80
2022/08/01 01:01:13;;;;;;;3.50;3.20;;;27.00;49.60;;;;;;5078645;28;20444;-79
2022/08/01 01:03:39;;;;;;;3.30;3.10;;;27.00;49.80;;;;;;5071859;28;20432;-79
2022/08/01 01:06:26;;;;;;;3.90;3.60;;;27.00;49.80;;;;;;5068127;28;20417;-79
2022/08/01 01:09:07;;;;;;;3.50;3.17;;;27.00;49.80;;;;;;5069137;28;20394;-79
2022/08/01 01:11:52;;;;;;;3.10;2.80;;;27.00;49.80;;;;;;5068358;28;20436;-80
2022/08/01 01:14:30;;;;;;;3.53;3.23;;;27.00;49.80;;;;;;5068662;28;20437;-79
2022/08/01 01:16:58;;;;;;;4.80;3.00;;;27.00;49.80;;;;;;5051525;28;20430;-79
2022/08/01 01:19:30;;;;;;;3.40;3.10;;;27.00;49.90;;;;;;5051873;28;20410;-78
2022/08/01 01:22:16;;;;;;;3.63;3.33;;;27.00;49.80;;;;;;5052049;28;20481;-80
2022/08/01 01:24:45;;;;;;;3.07;2.87;;;27.00;49.90;;;;;;5069059;28;20402;-80
2022/08/01 01:27:35;;;;;;;3.70;3.40;;;27.00;49.90;;;;;;5068488;28;20417;-80
2022/08/01 01:30:02;;;;;;;2.80;2.60;;;27.00;49.90;;;;;;5068607;28;20449;-79
2022/08/01 01:32:33;;;;;;;4.13;3.73;;;27.00;49.90;;;;;;5068763;28;20414;-80
2022/08/01 01:35:05;;;;;;;3.77;3.47;;;27.00;49.90;;;;;;5056491;28;20413;-79
2022/08/01 01:37:33;;;;;;;4.00;3.50;;;27.00;50.00;;;;;;5073269;28;20823;-79
2022/08/01 01:40:00;;;;;;;3.63;3.30;;;27.00;49.90;;;;;;5072541;28;20444;-79
2022/08/01 01:42:27;;;;;;;3.63;3.33;;;27.00;49.90;;;;;;5073386;28;20439;-79
2022/08/01 01:44:54;;;;;;;3.30;3.00;;;27.00;49.90;;;;;;5073502;28;20413;-79
2022/08/01 01:47:22;;;;;;;3.60;3.30;;;27.00;50.00;;;;;;5038841;28;20429;-80
2022/08/01 01:49:50;;;;;;;3.93;3.60;;;27.00;50.10;;;;;;5055215;28;20449;-79
2022/08/01 01:52:18;;;;;;;3.27;2.97;;;27.00;50.10;;;;;;5055776;28;20493;-79
2022/08/01 01:54:51;;;;;;;3.20;2.90;;;27.00;50.10;;;;;;5073136;28;20398;-79
2022/08/01 01:57:18;;;;;;;3.67;3.37;;;27.00;50.10;;;;;;5055583;28;20421;-79
2022/08/01 01:59:46;;;;;;;3.50;3.20;;;27.00;50.10;;;;;;5073612;28;20421;-81
2022/08/01 02:02:14;;;;;;;3.83;3.17;;;27.00;50.00;;;;;;5058617;28;20419;-81
2022/08/01 02:04:46;;;;;;;2.90;2.70;;;27.00;50.00;;;;;;5057615;28;20410;-81
2022/08/01 02:07:17;;;;;;;4.67;3.80;;;27.00;50.10;;;;;;5057807;28;20406;-81
2022/08/01 02:09:48;;;;;;;3.23;2.93;;;27.00;50.10;;;;;;5075324;28;20468;-80
2022/08/01 02:12:17;;;;;;;3.37;3.17;;;27.00;50.10;;;;;;5042045;28;20436;-81
2022/08/01 02:14:46;;;;;;;3.57;3.27;;;27.00;50.10;;;;;;5073741;28;20414;-80
2022/08/01 02:17:17;;;;;;;3.80;3.20;;;27.00;50.10;;;;;;5056868;28;20436;-80
2022/08/01 02:19:44;;;;;;;3.50;3.20;;;27.00;50.10;;;;;;5040310;28;20413;-80
2022/08/01 02:22:12;;;;;;;3.20;3.00;;;27.00;50.20;;;;;;5057080;28;20858;-80
2022/08/01 02:24:54;;;;;;;3.37;3.17;;;27.00;50.30;;;;;;5074625;28;20421;-81
2022/08/01 02:27:56;;;;;;;4.90;3.50;;;27.00;50.20;;;;;;5072862;28;20473;-80
2022/08/01 02:30:25;;;;;;;3.27;2.97;;;27.00;50.30;;;;;;5056283;28;20487;-80
2022/08/01 02:33:00;;;;;;;4.20;3.10;;;26.90;50.20;;;;;;5057011;28;20406;-80
2022/08/01 02:35:38;;;;;;;3.67;3.13;;;27.00;50.40;;;;;;5073994;28;20458;-80
2022/08/01 02:38:07;;;;;;;3.03;2.83;;;27.00;50.40;;;;;;5056493;28;20414;-80
2022/08/01 02:40:37;;;;;;;3.47;2.90;;;27.00;50.40;;;;;;5056415;28;20417;-80
2022/08/01 02:43:08;;;;;;;3.07;2.83;;;27.00;50.50;;;;;;5074210;28;20412;-80
2022/08/01 02:45:39;;;;;;;4.27;3.50;;;27.00;50.40;;;;;;5056480;28;20496;-80
2022/08/01 02:48:11;;;;;;;4.50;3.63;;;27.00;50.40;;;;;;5056049;28;20410;-79
2022/08/01 02:50:41;;;;;;;4.20;3.87;;;27.00;50.40;;;;;;5056284;28;20453;-80
2022/08/01 02:53:11;;;;;;;2.83;2.63;;;27.00;50.40;;;;;;5056475;28;20410;-80
2022/08/01 02:55:40;;;;;;;3.57;3.27;;;27.00;50.40;;;;;;5055236;28;20418;-79
2022/08/01 02:58:09;;;;;;;3.43;3.13;;;27.00;50.40;;;;;;5053827;28;20413;-80
2022/08/01 03:00:36;;;;;;;4.23;3.33;;;27.00;50.40;;;;;;5054668;28;20820;-80
2022/08/01 03:03:06;;;;;;;3.53;2.87;;;27.00;50.40;;;;;;5053745;28;20422;-79
2022/08/01 03:05:34;;;;;;;3.60;3.30;;;27.00;50.40;;;;;;5054338;28;20406;-80
2022/08/01 03:08:01;;;;;;;3.30;3.00;;;27.00;50.20;;;;;;5037175;28;20422;-80
2022/08/01 03:10:29;;;;;;;5.40;3.03;;;27.00;50.30;;;;;;5053746;28;20465;-80
2022/08/01 03:12:59;;;;;;;2.80;2.60;;;27.00;50.50;;;;;;5054233;28;20508;-80
2022/08/01 03:15:28;;;;;;;3.77;3.47;;;27.00;50.50;;;;;;5054076;28;20947;-80
2022/08/01 03:17:55;;;;;;;3.50;3.20;;;27.00;50.50;;;;;;5070581;28;20418;-80
2022/08/01 03:20:24;;;;;;;3.37;3.17;;;27.00;50.60;;;;;;5054694;28;20509;-79
2022/08/01 03:22:57;;;;;;;3.80;3.50;;;27.00;50.60;;;;;;5054158;28;20422;-79
2022/08/01 03:25:25;;;;;;;3.43;3.20;;;27.00;50.70;;;;;;5054374;28;20442;-79
2022/08/01 03:27:56;;;;;;;3.23;3.03;;;27.00;50.70;;;;;;5071628;28;20856;-79
2022/08/01 03:30:24;;;;;;;4.37;3.97;;;27.00;50.70;;;;;;5087355;28;20537;-79
2022/08/01 03:32:50;;;;;;;3.90;3.60;;;27.00;50.70;;;;;;5071558;28;20481;-80
2022/08/01 03:35:18;;;;;;;3.77;3.50;;;27.00;51.30;;;;;;5053491;28;20437;-79
2022/08/01 03:37:51;;;;;;;3.53;3.23;;;27.00;50.80;;;;;;5053487;28;20481;-79
2022/08/01 03:40:31;;;;;;;3.53;3.23;;;27.00;50.80;;;;;;5054280;28;20428;-79
2022/08/01 03:43:02;;;;;;;3.57;3.27;;;27.00;50.90;;;;;;5071527;28;20752;-79
2022/08/01 03:45:37;;;;;;;3.60;3.30;;;26.90;50.90;;;;;;5053605;28;20410;-79
2022/08/01 03:48:09;;;;;;;3.47;3.20;;;27.00;50.90;;;;;;5054040;28;20428;-79
2022/08/01 03:50:39;;;;;;;3.43;3.13;;;27.00;50.90;;;;;;5070423;28;20464;-79
2022/08/01 03:53:09;;;;;;;3.37;3.17;;;27.00;50.90;;;;;;5070420;28;20697;-79
2022/08/01 03:55:37;;;;;;;3.47;3.20;;;27.00;50.90;;;;;;5052987;28;20683;-80
2022/08/01 03:58:05;;;;;;;3.53;3.30;;;27.00;50.90;;;;;;5053192;28;20409;-79
2022/08/01 04:00:31;;;;;;;3.23;3.03;;;27.00;50.90;;;;;;5070856;28;20413;-79
2022/08/01 04:02:58;;;;;;;3.20;2.93;;;27.00;50.90;;;;;;5053215;28;20418;-79
2022/08/01 04:05:25;;;;;;;3.53;3.33;;;27.00;51.00;;;;;;5070271;28;20497;-78
2022/08/01 04:07:55;;;;;;;4.20;3.77;;;27.00;50.90;;;;;;5052999;28;20413;-80
2022/08/01 04:10:22;;;;;;;4.20;3.90;;;27.00;50.90;;;;;;5053222;28;20481;-80
2022/08/01 04:12:48;;;;;;;3.50;3.30;;;27.00;50.90;;;;;;5053178;28;20413;-80
2022/08/01 04:15:14;;;;;;;3.10;2.90;;;27.00;51.00;;;;;;5053930;28;20834;-80
2022/08/01 04:17:40;;;;;;;4.00;3.70;;;27.00;50.90;;;;;;5053300;28;20410;-80
2022/08/01 04:20:07;;;;;;;3.30;3.07;;;27.00;51.00;;;;;;5053431;28;20732;-79
2022/08/01 04:22:33;;;;;;;3.87;3.57;;;26.90;50.90;;;;;;5086414;28;20424;-79
2022/08/01 04:25:02;;;;;;;3.70;3.20;;;26.90;50.90;;;;;;5086031;28;20413;-79
2022/08/01 04:27:36;;;;;;;3.80;3.50;;;26.90;50.80;;;;;;5053282;28;20785;-79
2022/08/01 04:30:04;;;;;;;3.40;3.10;;;26.90;50.90;;;;;;5052578;28;20450;-79
2022/08/01 04:32:34;;;;;;;3.53;3.23;;;26.90;50.80;;;;;;5052028;28;20413;-79
2022/08/01 04:35:09;;;;;;;3.80;3.50;;;26.90;50.80;;;;;;5050857;28;20434;-79
2022/08/01 04:37:37;;;;;;;3.67;3.40;;;26.90;50.90;;;;;;5068759;28;20405;-79
2022/08/01 04:40:08;;;;;;;3.70;3.40;;;26.90;51.00;;;;;;5086367;28;20428;-79
2022/08/01 04:42:34;;;;;;;3.90;3.50;;;26.90;51.00;;;;;;5070392;28;20454;-79
2022/08/01 04:45:01;;;;;;;4.00;3.60;;;26.90;51.10;;;;;;5085977;28;20443;-78
2022/08/01 04:47:28;;;;;;;3.67;3.20;;;26.90;51.10;;;;;;5069724;28;20409;-79
2022/08/01 04:49:56;;;;;;;3.43;3.13;;;26.90;51.10;;;;;;5052554;28;20453;-79
2022/08/01 04:52:22;;;;;;;3.53;3.30;;;26.90;51.20;;;;;;5069675;28;20426;-79
2022/08/01 04:54:48;;;;;;;3.50;3.27;;;26.90;51.00;;;;;;5052957;28;20409;-79
2022/08/01 04:57:16;;;;;;;3.70;3.40;;;26.90;51.00;;;;;;5086054;28;20416;-79
2022/08/01 04:59:43;;;;;;;3.53;3.23;;;26.90;51.10;;;;;;5052420;28;20430;-79
2022/08/01 05:02:15;;;;;;;5.50;3.47;;;26.90;51.00;;;;;;5069698;28;20469;-79
2022/08/01 05:04:45;;;;;;;4.27;3.60;;;26.90;51.10;;;;;;5086242;28;20421;-78
2022/08/01 05:07:12;;;;;;;3.80;3.50;;;26.90;51.10;;;;;;5069773;28;20418;-79
2022/08/01 05:09:41;;;;;;;4.03;3.73;;;26.90;51.10;;;;;;5069139;28;20528;-79
2022/08/01 05:12:08;;;;;;;3.53;3.23;;;26.90;51.10;;;;;;5069921;28;20414;-79
2022/08/01 05:14:38;;;;;;;4.30;3.63;;;26.90;51.00;;;;;;5070043;28;20420;-80
2022/08/01 05:17:06;;;;;;;3.90;3.60;;;26.90;51.00;;;;;;5052159;28;20421;-79
2022/08/01 05:19:36;;;;;;;4.67;4.30;;;26.80;51.00;;;;;;5052268;28;20445;-79
2022/08/01 05:22:06;;;;;;;4.03;3.70;;;26.80;51.50;;;;;;5051934;28;20421;-79
2022/08/01 05:24:36;;;;;;;4.07;3.67;;;26.80;51.00;;;;;;5052248;28;20417;-79
2022/08/01 05:27:03;;;;;;;3.80;3.50;;;26.80;51.00;;;;;;5052836;28;20421;-79
2022/08/01 05:29:29;;;;;;;3.63;3.33;;;26.80;51.00;;;;;;5052448;28;20881;-80
2022/08/01 05:31:59;;;;;;;3.60;3.30;;;26.80;51.00;;;;;;5052259;28;20560;-79
2022/08/01 05:34:25;;;;;;;3.90;3.60;;;26.80;51.10;;;;;;5069540;28;20585;-79
2022/08/01 05:36:54;;;;;;;4.03;3.63;;;26.80;51.00;;;;;;5052201;28;20418;-79
2022/08/01 05:39:20;;;;;;;3.70;3.43;;;26.80;51.00;;;;;;5052310;28;20412;-79
2022/08/01 05:41:46;;;;;;;3.40;3.10;;;26.80;51.10;;;;;;5052673;28;20509;-80
2022/08/01 05:44:12;;;;;;;3.43;3.23;;;26.80;51.10;;;;;;5052956;28;20414;-79
2022/08/01 05:46:38;;;;;;;4.00;3.70;;;26.80;51.10;;;;;;5085723;28;20409;-80
2022/08/01 05:49:05;;;;;;;3.63;3.33;;;26.90;51.10;;;;;;5052609;28;20451;-79
2022/08/01 05:51:32;;;;;;;3.70;3.40;;;26.80;51.10;;;;;;5068608;28;20780;-80
2022/08/01 05:53:58;;;;;;;3.93;3.60;;;26.80;51.00;;;;;;5052181;28;20409;-79
2022/08/01 05:56:27;;;;;;;3.77;3.40;;;26.90;51.10;;;;;;5052270;28;20409;-78
2022/08/01 05:58:59;;;;;;;4.10;3.80;;;26.90;51.20;;;;;;5068028;28;20416;-79
2022/08/01 06:01:25;;;;;;;3.60;3.30;;;26.90;51.10;;;;;;5051839;28;20425;-79
2022/08/01 06:03:53;;;;;;;4.07;3.73;;;26.90;51.20;;;;;;5085184;28;20414;-80
2022/08/01 06:06:20;;;;;;;3.90;3.60;;;26.90;51.20;;;;;;5050861;28;20429;-79
2022/08/01 06:08:49;;;;;;;4.23;3.83;;;26.90;51.20;;;;;;5068243;28;20530;-80
2022/08/01 06:11:15;;;;;;;4.20;3.47;;;26.90;51.20;;;;;;5069130;28;20531;-79
2022/08/01 06:13:41;;;;;;;4.40;3.40;;;26.90;51.20;;;;;;5085186;28;20402;-79
2022/08/01 06:16:07;;;;;;;5.10;3.83;;;26.90;51.20;;;;;;5051338;28;20433;-78
2022/08/01 06:18:35;;;;;;;3.90;3.60;;;26.90;51.20;;;;;;5068634;28;20408;-81
2022/08/01 06:21:01;;;;;;;3.83;3.60;;;26.90;51.20;;;;;;5054119;28;20424;-80
2022/08/01 06:23:32;;;;;;;4.03;3.73;;;26.90;51.20;;;;;;5087404;28;20402;-80
2022/08/01 06:25:58;;;;;;;3.73;3.43;;;26.90;51.30;;;;;;5055504;28;20469;-80
2022/08/01 06:28:24;;;;;;;3.77;3.47;;;26.90;51.20;;;;;;5072265;28;20409;-80
2022/08/01 06:30:50;;;;;;;4.07;3.67;;;26.90;51.20;;;;;;5071413;28;20445;-80
2022/08/01 06:33:17;;;;;;;4.23;3.93;;;26.90;51.30;;;;;;5072586;28;20412;-80
2022/08/01 06:35:43;;;;;;;4.23;3.83;;;26.90;51.30;;;;;;5072470;28;20398;-80
2022/08/01 06:38:09;;;;;;;4.10;3.80;;;26.80;51.40;;;;;;5088366;28;20398;-80
2022/08/01 06:40:35;;;;;;;4.20;3.80;;;26.90;51.40;;;;;;5072113;28;20183;-80
2022/08/01 06:43:04;;;;;;;4.00;3.70;;;26.80;51.30;;;;;;5054783;28;20417;-80
2022/08/01 06:45:36;;;;;;;3.70;3.40;;;26.80;51.30;;;;;;5055232;28;20436;-81
2022/08/01 06:48:03;;;;;;;4.83;3.30;;;26.80;51.20;;;;;;5087723;28;20428;-80
2022/08/01 06:50:41;;;;;;;3.20;3.00;;;26.80;51.30;;;;;;5054139;28;20487;-80
2022/08/01 06:53:07;;;;;;;3.83;3.50;;;26.80;51.20;;;;;;5055395;28;20413;-80
2022/08/01 06:55:35;;;;;;;4.40;3.40;;;26.80;51.30;;;;;;5089183;28;20714;-81
2022/08/01 06:58:01;;;;;;;3.90;3.47;;;26.90;51.30;;;;;;5055029;28;20202;-80
2022/08/01 07:00:27;;;;;;;3.50;3.30;;;26.80;51.40;;;;;;5053857;28;20444;-80
2022/08/01 07:03:38;;;;;;;3.50;3.20;;;26.80;51.40;;;;;;5071555;28;20198;-81
2022/08/01 07:06:04;;;;;;;4.93;4.53;;;26.80;51.30;;;;;;5027312;28;20700;-79
2022/08/01 07:08:38;;;;;;;3.80;3.33;;;26.80;51.30;;;;;;5071703;28;20417;-81
2022/08/01 07:11:05;;;;;;;6.03;3.70;;;26.80;51.30;;;;;;5055887;28;20752;-80
2022/08/01 07:13:32;;;;;;;3.83;3.53;;;26.80;51.30;;;;;;5055596;28;20448;-80
2022/08/01 07:15:58;;;;;;;3.93;3.63;;;26.90;51.30;;;;;;5055743;28;20438;-80
2022/08/01 07:18:28;;;;;;;3.50;3.20;;;26.90;51.30;;;;;;5055575;28;20406;-80
2022/08/01 07:20:55;;;;;;;3.90;3.60;;;26.90;51.30;;;;;;5072507;28;20416;-80
2022/08/01 07:23:22;;;;;;;3.30;3.00;;;26.90;51.30;;;;;;5071958;28;20440;-80
2022/08/01 07:25:52;;;;;;;4.00;3.40;;;26.90;51.30;;;;;;5054797;28;20413;-80
2022/08/01 07:28:18;;;;;;;3.10;2.87;;;26.90;51.30;;;;;;5054002;28;20406;-80
2022/08/01 07:30:45;;;;;;;3.00;2.80;;;26.90;51.40;;;;;;5070170;28;20453;-80
2022/08/01 07:33:12;;;;;;;3.67;3.37;;;26.90;51.30;;;;;;5053813;28;20489;-80
2022/08/01 07:35:39;;;;;;;3.40;3.10;;;26.90;51.30;;;;;;5054096;28;20405;-80
2022/08/01 07:38:08;;;;;;;3.57;3.13;;;26.90;51.30;;;;;;5053852;28;20417;-80
2022/08/01 07:40:42;;;;;;;3.60;3.30;;;26.90;51.20;;;;;;5055374;28;20846;-80
2022/08/01 07:43:12;;;;;;;3.00;2.80;;;26.90;51.20;;;;;;5057337;28;20410;-81
2022/08/01 07:45:40;;;;;;;3.90;3.17;;;26.90;51.20;;;;;;5056019;28;20463;-80
2022/08/01 07:48:11;;;;;;;5.17;2.90;;;26.90;51.20;;;;;;5057171;28;20444;-80
2022/08/01 07:51:04;;;;;;;3.60;3.30;;;26.90;51.30;;;;;;5056729;28;20450;-81
2022/08/01 07:53:37;;;;;;;3.47;3.17;;;26.90;51.20;;;;;;5073411;28;20424;-81
2022/08/01 07:56:06;;;;;;;3.03;2.73;;;26.90;51.30;;;;;;5067977;28;20402;-81
2022/08/01 07:58:39;;;;;;;3.80;3.00;;;26.90;51.20;;;;;;5056875;28;20433;-80
2022/08/01 08:01:05;;;;;;;3.40;3.10;;;26.90;51.30;;;;;;5040334;28;20424;-80
2022/08/01 08:03:56;;;;;;;3.60;3.00;;;26.90;51.40;;;;;;5072506;28;20446;-81
2022/08/01 08:06:36;;;;;;;3.33;2.63;;;26.90;51.40;;;;;;5073175;28;20831;-80
2022/08/01 08:09:04;;;;;;;3.30;3.00;;;26.90;51.50;;;;;;5056046;28;20417;-80
2022/08/01 09:26:42;;;;;;;2.77;2.57;;;27.00;51.80;;;;;;5902120;22;21191;-82
2022/08/01 09:29:18;;;;;;;3.27;2.97;;;27.00;51.60;;;;;;5054431;28;20445;-80
2022/08/01 09:31:46;;;;;;;3.53;2.43;;;27.00;51.70;;;;;;5054876;28;20441;-79
2022/08/01 09:34:32;;;;;;;6.07;2.50;;;27.00;51.80;;;;;;5072036;28;20398;-80
2022/08/01 09:37:05;;;;;;;2.70;2.50;;;27.00;51.70;;;;;;5054111;28;20402;-79
2022/08/01 09:39:40;;;;;;;3.10;2.80;;;27.00;51.70;;;;;;5053982;28;20433;-79
2022/08/01 09:42:51;;;;;;;2.50;2.30;;;27.00;51.50;;;;;;5053394;28;20493;-81
2022/08/01 09:45:36;;;;;;;4.40;2.93;;;27.00;51.60;;;;;;4948325;29;20411;-78
2022/08/01 09:48:11;;;;;;;2.60;2.40;;;27.00;51.70;;;;;;4953586;29;20422;-79
2022/08/01 09:50:47;;;;;;;4.73;2.90;;;27.00;51.80;;;;;;4954691;29;20469;-79
2022/08/01 09:53:20;;;;;;;3.13;2.70;;;27.00;51.80;;;;;;4928852;29;20422;-80
2022/08/01 09:55:55;;;;;;;3.23;2.93;;;27.00;51.70;;;;;;4951449;29;20415;-79
2022/08/01 09:58:24;;;;;;;3.53;2.53;;;27.00;51.80;;;;;;4939249;29;20399;-80
2022/08/01 10:01:04;;;;;;;2.90;2.60;;;27.00;51.90;;;;;;4953528;29;20417;-79
2022/08/01 10:03:33;;;;;;;2.37;2.17;;;27.00;51.70;;;;;;4958832;29;20873;-80
2022/08/01 10:09:09;;;;;;;2.30;2.10;;;27.00;51.60;;;;;;4967437;29;20445;-78
2022/08/01 10:11:38;;;;;;;3.33;3.03;;;27.00;51.50;;;;;;5061951;28;20449;-78
2022/08/01 10:14:12;;;;;;;2.53;2.33;;;27.00;51.60;;;;;;5074533;28;20417;-78
2022/08/01 10:16:41;;;;;;;4.60;2.40;;;27.00;51.70;;;;;;5057666;28;20410;-79
2022/08/01 10:19:08;;;;;;;3.83;2.40;;;27.00;51.70;;;;;;5057179;28;20442;-79
2022/08/01 10:21:36;;;;;;;2.60;2.37;;;27.10;51.80;;;;;;5057555;28;20421;-79
2022/08/01 10:24:05;;;;;;;3.07;2.77;;;27.00;51.80;;;;;;5056567;28;20417;-79
2022/08/01 10:26:36;;;;;;;3.07;2.70;;;27.00;51.80;;;;;;5055558;28;20425;-79
2022/08/01 10:29:17;;;;;;;3.00;2.50;;;27.10;51.80;;;;;;5057457;28;20451;-78
2022/08/01 10:31:44;;;;;;;3.60;2.40;;;27.10;51.80;;;;;;5056383;28;20524;-80
2022/08/01 10:34:11;;;;;;;3.33;2.43;;;27.10;51.80;;;;;;5057138;28;20414;-79
2022/08/01 10:36:38;;;;;;;3.17;2.40;;;27.10;51.70;;;;;;5056333;28;20414;-80
2022/08/01 10:39:16;;;;;;;2.77;2.57;;;27.10;51.70;;;;;;5056490;28;20420;-78
2022/08/01 10:41:48;;;;;;;3.60;3.30;;;27.10;51.70;;;;;;5056490;28;20409;-79
2022/08/01 10:44:18;;;;;;;8.33;3.30;;;27.10;51.90;;;;;;5056528;28;20421;-79
2022/08/01 10:46:53;;;;;;;4.70;2.70;;;27.10;51.90;;;;;;5056280;28;20413;-80
2022/08/01 10:49:23;;;;;;;2.63;2.43;;;27.10;51.80;;;;;;5055220;28;20409;-81
2022/08/01 10:51:58;;;;;;;3.63;3.20;;;27.10;51.80;;;;;;5074049;28;20752;-78
2022/08/01 10:54:27;;;;;;;3.33;2.43;;;27.10;51.70;;;;;;5056102;28;20417;-81
2022/08/01 10:57:04;;;;;;;2.80;2.60;;;27.10;51.70;;;;;;5073792;28;20433;-79
2022/08/01 10:59:31;;;;;;;6.03;3.80;;;27.10;51.70;;;;;;5072785;28;20390;-79
2022/08/01 11:02:01;;;;;;;5.20;3.30;;;27.10;51.80;;;;;;5055255;28;20418;-79
2022/08/01 11:04:37;;;;;;;3.50;3.00;;;27.10;51.80;;;;;;5054082;28;20416;-78
2022/08/01 11:07:18;;;;;;;3.00;2.70;;;27.10;51.80;;;;;;5072644;28;20463;-80
2022/08/01 11:10:19;;;;;;;3.40;2.80;;;27.10;51.60;;;;;;5073655;28;20485;-79
2022/08/01 11:12:45;;;;;;;4.83;3.33;;;27.10;51.70;;;;;;5055467;28;20418;-80
2022/08/01 11:15:11;;;;;;;3.90;2.53;;;27.10;51.60;;;;;;5073565;28;20420;-78
2022/08/01 11:17:48;;;;;;;4.87;3.17;;;27.10;51.60;;;;;;5056396;28;20410;-80
2022/08/01 11:20:32;;;;;;;6.27;3.73;;;27.10;51.60;;;;;;5039432;28;20183;-79
2022/08/01 11:23:01;;;;;;;4.77;3.40;;;27.10;51.70;;;;;;5055934;28;20409;-80
2022/08/01 11:25:48;;;;;;;4.07;2.97;;;27.10;51.60;;;;;;5074710;28;20432;-79
2022/08/01 11:28:20;;;;;;;7.73;3.33;;;27.10;51.60;;;;;;5056253;28;20436;-80
2022/08/01 11:30:55;;;;;;;4.00;3.27;;;27.10;51.70;;;;;;5073306;28;20468;-80
2022/08/01 11:33:41;;;;;;;4.80;3.43;;;27.10;51.70;;;;;;5054893;28;20414;-80
2022/08/01 11:36:15;;;;;;;3.80;3.33;;;27.10;51.50;;;;;;5055902;28;20437;-79
2022/08/01 11:38:46;;;;;;;5.70;3.70;;;27.10;51.80;;;;;;5073469;28;20441;-79
2022/08/01 11:41:25;;;;;;;4.07;3.60;;;27.10;51.70;;;;;;5055793;28;20421;-78
2022/08/01 11:44:05;;;;;;;4.30;3.90;;;27.10;51.60;;;;;;5056393;28;20417;-79
2022/08/01 11:50:29;;;;;;;4.83;3.20;;;27.10;51.50;;;;;;4992807;28;20500;-79
2022/08/01 11:53:07;;;;;;;4.47;3.00;;;27.10;51.40;;;;;;4961619;28;20425;-79
2022/08/01 11:55:36;;;;;;;4.63;2.87;;;27.10;51.50;;;;;;4977512;28;20417;-80
2022/08/01 11:58:05;;;;;;;4.00;2.87;;;27.10;51.50;;;;;;4993930;28;20393;-79
2022/08/01 12:00:32;;;;;;;3.50;3.20;;;27.10;51.50;;;;;;4977137;28;20440;-80
2022/08/01 12:03:06;;;;;;;2.87;2.67;;;27.10;51.40;;;;;;4977588;28;20413;-80
2022/08/01 12:05:43;;;;;;;3.73;3.43;;;27.10;51.40;;;;;;4977435;28;20422;-79
2022/08/01 12:08:26;;;;;;;3.20;2.87;;;27.10;51.40;;;;;;4978806;28;20417;-80
2022/08/01 12:10:57;;;;;;;2.97;2.67;;;27.10;51.40;;;;;;4962222;28;20492;-79
2022/08/01 12:13:26;;;;;;;4.10;3.40;;;27.10;51.40;;;;;;4976768;28;20413;-80
2022/08/01 12:15:54;;;;;;;3.10;2.80;;;27.10;52.00;;;;;;4975872;28;20800;-79
2022/08/01 12:18:23;;;;;;;4.33;3.30;;;27.10;51.40;;;;;;4991691;28;20437;-80
2022/08/01 12:20:49;;;;;;;5.00;3.40;;;27.10;51.40;;;;;;4976310;28;20413;-80
2022/08/01 12:23:18;;;;;;;5.87;3.30;;;27.20;51.40;;;;;;4991930;28;20420;-79
2022/08/01 12:25:50;;;;;;;4.20;3.20;;;27.20;51.40;;;;;;5028787;28;20421;-79
2022/08/01 12:28:18;;;;;;;4.83;3.03;;;27.20;51.40;;;;;;5054854;28;20433;-80
2022/08/01 12:30:55;;;;;;;5.70;3.30;;;27.20;51.50;;;;;;5053582;28;20561;-80
2022/08/01 12:33:27;;;;;;;6.90;2.73;;;27.20;51.60;;;;;;5054216;28;20408;-80
2022/08/01 12:39:22;;;;;;;2.53;2.33;;;27.20;51.50;;;;;;5072084;28;20377;-79
2022/08/01 12:41:53;;;;;;;4.43;2.63;;;27.20;51.40;;;;;;5071714;28;20398;-80
2022/08/01 12:44:26;;;;;;;3.57;2.73;;;27.20;51.50;;;;;;5037901;28;20410;-80
2022/08/01 12:46:55;;;;;;;3.80;2.30;;;27.20;51.40;;;;;;5054309;28;20421;-80
2022/08/01 12:49:22;;;;;;;2.80;2.47;;;27.20;51.40;;;;;;5054673;28;20485;-79
2022/08/01 12:52:12;;;;;;;3.10;2.80;;;27.20;51.30;;;;;;5071724;28;20748;-79
2022/08/01 12:55:05;;;;;;;3.80;2.50;;;27.20;51.30;;;;;;5057722;28;20416;-80
2022/08/01 12:57:44;;;;;;;3.17;2.87;;;27.20;51.30;;;;;;5072000;28;20421;-80
2022/08/01 13:00:24;;;;;;;2.70;2.37;;;27.20;51.40;;;;;;5057642;28;20422;-80
2022/08/01 13:03:13;;;;;;;3.13;2.83;;;27.20;51.50;;;;;;5072232;28;20406;-81
2022/08/01 13:05:59;;;;;;;2.50;2.30;;;27.20;51.40;;;;;;5054387;28;20417;-80
2022/08/01 13:08:32;;;;;;;2.37;2.17;;;27.20;51.40;;;;;;5072218;28;20402;-80
2022/08/01 13:11:16;;;;;;;3.20;2.90;;;27.20;51.50;;;;;;5052179;28;20460;-81
2022/08/01 13:13:49;;;;;;;2.63;2.43;;;27.20;51.50;;;;;;5054274;28;20517;-81
2022/08/01 13:16:31;;;;;;;2.87;2.47;;;27.20;51.40;;;;;;5054294;28;20880;-78
2022/08/01 13:19:10;;;;;;;2.63;2.37;;;27.20;51.60;;;;;;5054204;28;20445;-81
2022/08/01 13:22:01;;;;;;;3.23;2.23;;;27.20;51.80;;;;;;5054210;28;20483;-80
2022/08/01 13:24:31;;;;;;;2.40;2.10;;;27.20;51.60;;;;;;5028391;28;20417;-81
2022/08/01 13:27:03;;;;;;;4.00;2.50;;;27.20;51.60;;;;;;5039116;28;20417;-81
2022/08/01 13:29:45;;;;;;;3.83;2.70;;;27.20;51.60;;;;;;5280377;22;20485;-81
2022/08/01 13:32:17;;;;;;;5.63;2.80;;;27.20;51.60;;;;;;5109210;28;20422;-80
2022/08/01 13:34:44;;;;;;;2.97;2.53;;;27.20;51.60;;;;;;5109256;28;20435;-80
2022/08/01 13:37:11;;;;;;;3.47;2.50;;;27.20;51.50;;;;;;5117078;28;20434;-80
2022/08/01 13:39:44;;;;;;;2.60;2.40;;;27.20;51.60;;;;;;5117703;28;20429;-80
2022/08/01 13:42:28;;;;;;;3.30;3.00;;;27.20;51.70;;;;;;5116514;28;20448;-82
2022/08/01 13:44:59;;;;;;;3.40;2.63;;;27.20;51.60;;;;;;5116652;28;20413;-81
2022/08/01 13:47:34;;;;;;;4.73;2.33;;;27.30;51.70;;;;;;5114897;28;20444;-81
2022/08/01 13:50:30;;;;;;;2.73;2.10;;;27.30;51.80;;;;;;5100362;28;20559;-81
2022/08/01 13:53:57;;;;;;;3.40;2.07;;;27.30;51.80;;;;;;5113560;28;20426;-80
2022/08/01 14:07:03;;;;;;;2.50;2.30;;;27.30;51.80;;;;;;5032429;28;20398;-82
2022/08/01 14:10:03;;;;;;;2.87;2.57;;;27.30;51.90;;;;;;5017734;28;20423;-80
2022/08/01 14:12:37;;;;;;;2.83;2.23;;;27.30;51.80;;;;;;5003956;28;20407;-81
2022/08/01 14:15:04;;;;;;;2.40;2.20;;;27.30;51.70;;;;;;5017473;28;20411;-80
2022/08/01 14:17:32;;;;;;;2.13;1.90;;;27.30;51.70;;;;;;5017136;28;20400;-78
2022/08/01 14:20:04;;;;;;;2.40;2.03;;;27.30;51.60;;;;;;5034494;28;20407;-79
2022/08/01 14:22:39;;;;;;;2.30;2.10;;;27.30;51.60;;;;;;5018038;28;20423;-80
2022/08/01 14:25:10;;;;;;;2.40;2.20;;;27.30;51.50;;;;;;5017192;28;20798;-80
2022/08/01 14:27:49;;;;;;;2.83;2.33;;;27.30;51.60;;;;;;5018268;28;20495;-80
2022/08/01 14:30:25;;;;;;;2.47;2.23;;;27.30;51.60;;;;;;5001644;28;20474;-79
2022/08/01 14:33:15;;;;;;;2.73;2.53;;;27.30;51.50;;;;;;5031841;28;20441;-81
2022/08/01 14:35:49;;;;;;;2.43;1.93;;;27.30;51.50;;;;;;5103155;28;20434;-79
2022/08/01 14:38:33;;;;;;;2.83;2.30;;;27.30;51.40;;;;;;5101966;28;20414;-80
2022/08/01 14:41:03;;;;;;;2.37;2.17;;;27.40;51.60;;;;;;5100403;28;20415;-80
2022/08/01 14:43:52;;;;;;;2.17;1.97;;;27.30;51.50;;;;;;5117663;28;20430;-80
2022/08/01 14:46:29;;;;;;;3.10;2.37;;;27.40;51.50;;;;;;5118273;28;20432;-80
2022/08/01 14:48:55;;;;;;;2.40;2.00;;;27.30;51.60;;;;;;5135557;28;20462;-80